createdAt,value
2018-06-05T00:01:59.107Z,18.73
2018-06-05T00:06:51.997Z,20.37
2018-06-05T00:11:45.025Z,20.03
2018-06-05T00:16:37.925Z,20.23
2018-06-05T00:21:30.786Z,24.00
2018-06-05T00:26:23.714Z,22.83
2018-06-05T00:31:16.562Z,24.80
2018-06-05T00:36:09.442Z,24.10
2018-06-05T00:41:02.421Z,23.50
2018-06-05T00:45:55.463Z,25.77
2018-06-05T00:50:48.311Z,28.13
2018-06-05T00:55:41.253Z,23.70
2018-06-05T01:00:34.157Z,27.63
2018-06-05T01:05:27.093Z,26.63
2018-06-05T01:10:19.996Z,29.83
2018-06-05T01:15:12.826Z,25.20
2018-06-05T01:20:05.812Z,26.17
2018-06-05T01:24:58.648Z,25.17
2018-06-05T01:29:51.581Z,26.87
2018-06-05T01:34:44.630Z,27.30
2018-06-05T01:39:37.552Z,25.13
2018-06-05T01:44:30.453Z,25.50
2018-06-05T01:49:23.457Z,26.57
2018-06-05T01:54:16.441Z,27.07
2018-06-05T01:59:09.398Z,25.80
2018-06-05T02:04:02.224Z,27.93
2018-06-05T02:08:55.153Z,26.43
2018-06-05T02:13:48.048Z,28.33
2018-06-05T02:18:40.909Z,27.60
2018-06-05T02:23:33.796Z,26.40
2018-06-05T02:28:26.640Z,25.17
2018-06-05T02:33:19.573Z,26.03
2018-06-05T02:38:12.537Z,27.53
2018-06-05T02:43:05.535Z,26.87
2018-06-05T02:47:58.443Z,24.67
2018-06-05T02:52:51.294Z,25.40
2018-06-05T02:57:44.236Z,25.10
2018-06-05T03:02:37.098Z,23.67
2018-06-05T03:07:30.106Z,22.27
2018-06-05T03:12:23.004Z,24.43
2018-06-05T03:17:16.039Z,28.17
2018-06-05T03:22:08.875Z,26.43
2018-06-05T03:27:01.907Z,25.57
2018-06-05T03:31:54.748Z,25.20
2018-06-05T03:36:47.630Z,27.30
2018-06-05T03:41:40.529Z,24.20
2018-06-05T03:46:33.443Z,29.47
2018-06-05T03:51:26.319Z,25.83
2018-06-05T03:56:19.348Z,22.17
2018-06-05T04:01:12.321Z,25.03
2018-06-05T04:06:05.452Z,24.27
2018-06-05T04:10:58.454Z,23.97
2018-06-05T04:15:51.396Z,25.17
2018-06-05T04:20:44.214Z,24.27
2018-06-05T04:25:37.050Z,25.70
2018-06-05T04:30:30.033Z,27.37
2018-06-05T04:35:22.973Z,24.20
2018-06-05T04:40:15.965Z,24.73
2018-06-05T04:45:08.923Z,24.47
2018-06-05T04:50:01.813Z,26.80
2018-06-05T04:54:54.680Z,21.40
2018-06-05T04:59:47.658Z,27.80
2018-06-05T05:04:40.585Z,22.63
2018-06-05T05:09:33.457Z,23.27
2018-06-05T05:14:26.329Z,25.17
2018-06-05T05:19:19.169Z,25.77
2018-06-05T05:24:12.069Z,23.43
2018-06-05T05:29:04.963Z,20.50
2018-06-05T05:33:57.961Z,25.87
2018-06-05T05:38:50.904Z,21.97
2018-06-05T05:43:43.838Z,24.43
2018-06-05T05:48:36.850Z,25.77
2018-06-05T05:53:29.674Z,24.07
2018-06-05T05:58:22.684Z,27.33
2018-06-05T06:03:15.639Z,20.03
2018-06-05T06:08:08.528Z,27.00
2018-06-05T06:13:01.394Z,21.37
2018-06-05T06:17:54.209Z,23.57
2018-06-05T06:22:46.994Z,24.67
2018-06-05T06:27:40.068Z,25.63
2018-06-05T06:32:32.989Z,21.97
2018-06-05T06:37:25.930Z,25.97
2018-06-05T06:42:18.893Z,21.83
2018-06-05T06:47:11.864Z,26.47
2018-06-05T06:52:04.777Z,21.93
2018-06-05T06:56:57.646Z,21.63
2018-06-05T07:01:50.569Z,22.00
2018-06-05T07:06:43.443Z,26.00
2018-06-05T07:11:36.723Z,26.87
2018-06-05T07:16:29.605Z,26.83
2018-06-05T07:21:22.587Z,23.27
2018-06-05T07:26:15.536Z,19.73
2018-06-05T07:31:08.480Z,22.87
2018-06-05T07:36:01.765Z,25.60
2018-06-05T07:40:54.671Z,24.23
2018-06-05T07:45:47.641Z,21.73
2018-06-05T07:50:40.657Z,27.30
2018-06-05T07:55:33.737Z,25.30
2018-06-05T08:00:26.648Z,25.80
2018-06-05T08:05:19.515Z,24.80
2018-06-05T08:10:12.461Z,23.07
2018-06-05T08:15:06.590Z,22.03
2018-06-05T08:19:59.553Z,24.07
2018-06-05T08:24:52.517Z,31.13
2018-06-05T08:29:45.496Z,20.67
2018-06-05T08:34:38.464Z,23.87
2018-06-05T08:39:31.373Z,23.67
2018-06-05T08:44:24.318Z,25.77
2018-06-05T08:49:17.249Z,29.80
2018-06-05T08:55:13.798Z,25.37
2018-06-05T09:00:06.702Z,24.50
2018-06-05T09:04:59.774Z,26.43
2018-06-05T09:09:52.742Z,32.40
2018-06-05T09:14:45.713Z,28.67
2018-06-05T09:19:38.597Z,25.40
2018-06-05T09:24:31.506Z,25.03
2018-06-05T09:29:24.688Z,28.13
2018-06-05T09:34:17.731Z,26.03
2018-06-05T09:39:10.699Z,25.10
2018-06-05T09:44:04.198Z,28.67
2018-06-05T09:48:57.157Z,25.47
2018-06-05T09:53:50.079Z,27.10
2018-06-05T09:58:42.892Z,24.10
2018-06-05T10:03:35.816Z,26.53
2018-06-05T10:08:28.834Z,28.23
2018-06-05T10:13:21.814Z,30.73
2018-06-05T10:18:14.843Z,27.20
2018-06-05T10:23:07.926Z,27.37
2018-06-05T10:28:00.786Z,24.63
2018-06-05T10:32:53.727Z,25.50
2018-06-05T10:37:46.694Z,24.93
2018-06-05T10:42:39.676Z,27.90
2018-06-05T10:47:32.567Z,25.20
2018-06-05T10:52:25.441Z,25.40
2018-06-05T10:57:18.353Z,24.73
2018-06-05T11:02:11.360Z,25.50
2018-06-05T11:07:04.471Z,26.17
2018-06-05T11:11:57.359Z,23.50
2018-06-05T11:16:50.440Z,23.93
2018-06-05T11:21:43.356Z,24.27
2018-06-05T11:26:36.266Z,23.33
2018-06-05T11:31:29.137Z,23.67
2018-06-05T11:36:22.023Z,23.37
2018-06-05T11:41:14.955Z,23.90
2018-06-05T11:46:07.866Z,26.93
2018-06-05T11:51:00.823Z,22.40
2018-06-05T11:55:53.757Z,20.73
2018-06-05T12:00:46.721Z,20.40
2018-06-05T12:05:39.589Z,21.80
2018-06-05T12:10:32.512Z,20.70
2018-06-05T12:15:25.408Z,20.00
2018-06-05T12:20:18.329Z,23.93
2018-06-05T12:25:11.203Z,19.93
2018-06-05T12:30:04.540Z,20.40
2018-06-05T12:34:57.446Z,19.10
2018-06-05T12:39:50.332Z,16.70
2018-06-05T12:44:44.089Z,15.60
2018-06-05T12:49:36.999Z,22.10
2018-06-05T12:54:29.849Z,20.07
2018-06-05T12:59:22.740Z,16.27
2018-06-05T13:04:15.784Z,16.97
2018-06-05T13:09:08.717Z,21.43
2018-06-05T13:14:01.630Z,15.93
2018-06-05T13:18:54.529Z,18.83
2018-06-05T13:23:47.573Z,18.93
2018-06-05T13:28:43.061Z,16.87
2018-06-05T13:33:36.131Z,14.97
2018-06-05T13:38:29.142Z,15.07
2018-06-05T13:43:22.017Z,16.80
2018-06-05T13:48:14.890Z,15.17
2018-06-05T13:53:07.952Z,19.93
2018-06-05T13:58:01.149Z,14.73
2018-06-05T14:02:54.038Z,15.30
2018-06-05T14:07:51.925Z,20.37
2018-06-05T14:12:44.864Z,17.50
2018-06-05T14:17:37.795Z,15.47
2018-06-05T14:22:30.662Z,15.40
2018-06-05T14:27:23.722Z,16.03
2018-06-05T14:32:16.784Z,14.63
2018-06-05T14:37:09.679Z,12.40
2018-06-05T14:42:02.890Z,14.87
2018-06-05T14:46:55.962Z,12.03
2018-06-05T14:51:48.927Z,16.10
2018-06-05T14:56:41.867Z,16.80
2018-06-05T15:01:34.745Z,13.60
2018-06-05T15:06:27.634Z,19.53
2018-06-05T15:11:20.472Z,13.07
2018-06-05T15:16:13.460Z,12.53
2018-06-05T15:21:06.453Z,14.83
2018-06-05T15:25:59.448Z,14.37
2018-06-05T15:30:52.397Z,13.27
2018-06-05T15:35:45.232Z,12.63
2018-06-05T15:40:38.117Z,15.63
2018-06-05T15:45:31.094Z,12.47
2018-06-05T15:50:24.030Z,16.30
2018-06-05T15:55:16.945Z,11.37
2018-06-05T16:00:09.826Z,16.10
2018-06-05T16:05:02.726Z,12.50
2018-06-05T16:09:55.541Z,14.00
2018-06-05T16:14:48.473Z,11.60
2018-06-05T16:19:41.340Z,11.30
2018-06-05T16:24:34.263Z,14.13
2018-06-05T16:29:27.079Z,14.13
2018-06-05T16:34:19.941Z,10.67
2018-06-05T16:39:12.965Z,12.93
2018-06-05T16:44:05.790Z,14.03
2018-06-05T16:48:58.705Z,13.37
2018-06-05T16:53:51.597Z,12.60
2018-06-05T16:58:44.421Z,11.73
2018-06-05T17:03:37.421Z,13.20
2018-06-05T17:08:30.812Z,15.60
2018-06-05T17:13:23.641Z,15.83
2018-06-05T17:18:16.537Z,13.10
2018-06-05T17:23:09.483Z,15.53
2018-06-05T17:28:02.417Z,18.97
2018-06-05T17:32:55.361Z,8.30
2018-06-05T17:37:48.217Z,9.03
2018-06-05T17:42:41.142Z,8.13
2018-06-05T17:47:34.064Z,8.03
2018-06-05T17:52:26.878Z,5.30
2018-06-05T17:57:19.676Z,5.83
2018-06-05T18:02:12.610Z,8.30
2018-06-05T18:07:05.494Z,4.33
2018-06-05T18:11:58.345Z,11.37
2018-06-05T18:16:51.256Z,4.97
2018-06-05T18:21:44.071Z,2.50
2018-06-05T18:26:37.023Z,4.87
2018-06-05T18:31:29.903Z,2.57
2018-06-05T18:36:22.790Z,4.97
2018-06-05T18:41:15.748Z,4.40
2018-06-05T18:46:08.682Z,2.53
2018-06-05T18:51:05.156Z,6.93
2018-06-05T18:55:58.130Z,5.50
2018-06-05T19:00:51.132Z,6.00
2018-06-05T19:05:44.002Z,3.53
2018-06-05T19:10:36.966Z,5.47
2018-06-05T19:15:29.952Z,4.13
2018-06-05T19:20:22.938Z,7.47
2018-06-05T19:25:15.873Z,4.47
2018-06-05T19:30:08.745Z,4.43
2018-06-05T19:35:01.651Z,3.73
2018-06-05T19:39:54.541Z,4.17
2018-06-05T19:44:47.340Z,6.67
2018-06-05T19:49:40.171Z,6.57
2018-06-05T19:54:33.109Z,4.67
2018-06-05T19:59:25.986Z,6.00
2018-06-05T20:04:18.905Z,6.20
2018-06-05T20:09:11.742Z,5.03
2018-06-05T20:14:04.665Z,9.93
2018-06-05T20:18:57.580Z,5.10
2018-06-05T20:23:50.611Z,6.33
2018-06-05T20:28:43.521Z,5.37
2018-06-05T20:33:36.364Z,3.77
2018-06-05T20:38:29.205Z,2.70
2018-06-05T20:43:22.081Z,8.50
2018-06-05T20:48:15.090Z,5.03
2018-06-05T20:53:08.044Z,3.00
2018-06-05T20:58:00.957Z,5.27
2018-06-05T21:02:54.038Z,2.97
2018-06-05T21:07:46.871Z,6.20
2018-06-05T21:12:39.688Z,4.63
2018-06-05T21:17:32.534Z,6.67
2018-06-05T21:22:25.376Z,4.53
2018-06-05T21:27:18.219Z,5.80
2018-06-05T21:32:11.090Z,5.30
2018-06-05T21:37:04.302Z,4.27
2018-06-05T21:41:57.163Z,5.37
2018-06-05T21:46:50.327Z,5.40
2018-06-05T21:51:43.226Z,4.10
2018-06-05T21:56:36.165Z,5.37
2018-06-05T22:01:29.010Z,9.50
2018-06-05T22:06:21.862Z,5.40
2018-06-05T22:11:16.803Z,5.20
2018-06-05T22:16:09.786Z,3.00
2018-06-05T22:21:02.688Z,2.70
2018-06-05T22:25:57.870Z,4.20
2018-06-05T22:30:50.800Z,3.93
2018-06-05T22:35:43.713Z,5.33
2018-06-05T22:40:36.548Z,5.27
2018-06-05T22:45:29.432Z,6.27
2018-06-05T22:50:22.495Z,4.33
2018-06-05T22:55:15.321Z,6.20
2018-06-05T23:00:08.371Z,7.40
2018-06-05T23:05:01.317Z,7.63
2018-06-05T23:09:54.213Z,5.80
2018-06-05T23:14:47.113Z,4.43
2018-06-05T23:19:40.157Z,4.23
2018-06-05T23:24:33.027Z,4.70
2018-06-05T23:29:25.912Z,9.83
2018-06-05T23:34:18.880Z,6.20
2018-06-05T23:39:11.851Z,8.80
2018-06-05T23:44:04.763Z,7.47
2018-06-05T23:48:57.731Z,6.13
2018-06-05T23:53:50.702Z,8.00
2018-06-05T23:58:43.551Z,3.37
